createdAt,value
2018-08-09T00:02:20.639Z,21.96
2018-08-09T00:04:47.817Z,21.93
2018-08-09T00:07:14.996Z,21.90
2018-08-09T00:09:42.135Z,21.87
2018-08-09T00:12:09.295Z,21.85
2018-08-09T00:14:36.389Z,21.82
2018-08-09T00:17:03.587Z,21.84
2018-08-09T00:19:30.793Z,21.90
2018-08-09T00:21:57.899Z,22.00
2018-08-09T00:24:25.055Z,21.96
2018-08-09T00:26:52.192Z,22.02
2018-08-09T00:29:19.378Z,21.98
2018-08-09T00:31:47.182Z,21.92
2018-08-09T00:34:14.310Z,21.83
2018-08-09T00:36:41.407Z,21.83
2018-08-09T00:39:10.884Z,21.75
2018-08-09T00:41:38.463Z,21.74
2018-08-09T00:44:05.629Z,21.78
2018-08-09T00:46:32.712Z,21.82
2018-08-09T00:48:59.839Z,21.93
2018-08-09T00:51:26.928Z,21.86
2018-08-09T00:53:54.067Z,21.86
2018-08-09T00:56:21.275Z,21.89
2018-08-09T00:58:48.351Z,21.92
2018-08-09T01:01:15.449Z,21.91
2018-08-09T01:03:42.592Z,21.87
2018-08-09T01:06:09.778Z,21.85
2018-08-09T01:08:37.013Z,21.84
2018-08-09T01:11:04.162Z,21.83
2018-08-09T01:13:31.242Z,21.75
2018-08-09T01:15:58.343Z,21.68
2018-08-09T01:18:25.536Z,21.63
2018-08-09T01:20:52.692Z,21.56
2018-08-09T01:23:19.771Z,21.49
2018-08-09T01:25:46.911Z,21.43
2018-08-09T01:28:14.016Z,21.39
2018-08-09T01:30:41.147Z,21.37
2018-08-09T01:33:08.368Z,21.34
2018-08-09T01:35:35.443Z,21.31
2018-08-09T01:38:02.524Z,21.29
2018-08-09T01:40:29.662Z,21.20
2018-08-09T01:43:08.299Z,21.18
2018-08-09T01:45:35.822Z,21.21
2018-08-09T01:48:02.980Z,21.06
2018-08-09T01:50:30.051Z,21.03
2018-08-09T01:52:57.526Z,21.06
2018-08-09T01:55:24.686Z,21.01
2018-08-09T01:57:51.845Z,21.01
2018-08-09T02:00:18.989Z,21.15
2018-08-09T02:02:46.077Z,21.20
2018-08-09T02:05:13.171Z,21.29
2018-08-09T02:07:42.991Z,21.40
2018-08-09T02:10:10.182Z,21.67
2018-08-09T02:12:37.263Z,21.72
2018-08-09T02:15:04.448Z,21.82
2018-08-09T02:17:31.570Z,21.93
2018-08-09T02:19:58.707Z,22.03
2018-08-09T02:22:26.237Z,22.10
2018-08-09T02:24:53.335Z,22.21
2018-08-09T02:27:20.414Z,22.24
2018-08-09T02:29:47.562Z,22.28
2018-08-09T02:32:14.707Z,22.32
2018-08-09T02:34:41.891Z,22.50
2018-08-09T02:37:09.067Z,22.39
2018-08-09T02:39:36.172Z,22.42
2018-08-09T02:42:03.270Z,22.49
2018-08-09T02:44:30.464Z,22.42
2018-08-09T02:46:57.618Z,22.43
2018-08-09T02:49:24.754Z,22.36
2018-08-09T02:51:51.895Z,22.41
2018-08-09T02:54:18.994Z,22.44
2018-08-09T02:56:46.147Z,22.36
2018-08-09T02:59:13.371Z,22.33
2018-08-09T03:01:40.451Z,22.39
2018-08-09T03:04:07.549Z,22.32
2018-08-09T03:06:34.760Z,22.32
2018-08-09T03:09:01.966Z,22.33
2018-08-09T03:11:29.111Z,22.30
2018-08-09T03:13:56.242Z,22.25
2018-08-09T03:16:23.357Z,22.23
2018-08-09T03:18:50.426Z,22.26
2018-08-09T03:21:17.606Z,22.29
2018-08-09T03:23:44.806Z,22.29
2018-08-09T03:26:11.888Z,22.26
2018-08-09T03:28:39.422Z,22.17
2018-08-09T03:31:06.542Z,22.12
2018-08-09T03:33:33.686Z,22.12
2018-08-09T03:36:01.007Z,22.15
2018-08-09T03:38:28.088Z,21.98
2018-08-09T03:40:55.182Z,21.97
2018-08-09T03:43:22.288Z,21.96
2018-08-09T03:45:49.426Z,21.95
2018-08-09T03:48:16.575Z,21.90
2018-08-09T03:50:43.800Z,21.84
2018-08-09T03:53:10.912Z,21.88
2018-08-09T03:55:37.983Z,21.94
2018-08-09T03:58:05.480Z,21.96
2018-08-09T04:00:33.058Z,21.94
2018-08-09T04:03:01.256Z,21.88
2018-08-09T04:05:28.380Z,21.88
2018-08-09T04:07:55.474Z,21.87
2018-08-09T04:10:22.627Z,21.88
2018-08-09T04:12:49.832Z,21.92
2018-08-09T04:15:16.943Z,21.88
2018-08-09T04:17:44.019Z,21.87
2018-08-09T04:20:11.163Z,21.92
2018-08-09T04:22:38.300Z,21.90
2018-08-09T04:25:05.476Z,21.88
2018-08-09T04:27:32.609Z,21.95
2018-08-09T04:29:59.716Z,21.95
2018-08-09T04:32:26.831Z,21.93
2018-08-09T04:34:54.008Z,21.95
2018-08-09T04:37:21.175Z,21.92
2018-08-09T04:39:48.264Z,21.91
2018-08-09T04:42:15.408Z,21.95
2018-08-09T04:44:42.509Z,22.00
2018-08-09T04:47:09.641Z,22.02
2018-08-09T04:49:36.834Z,22.12
2018-08-09T04:52:03.986Z,22.16
2018-08-09T04:54:31.093Z,22.14
2018-08-09T04:56:58.231Z,22.11
2018-08-09T04:59:25.414Z,22.21
2018-08-09T05:01:52.630Z,22.31
2018-08-09T05:04:19.770Z,22.33
2018-08-09T05:06:46.960Z,22.35
2018-08-09T05:09:14.056Z,22.40
2018-08-09T05:11:42.404Z,22.41
2018-08-09T05:14:09.735Z,22.51
2018-08-09T05:16:36.987Z,22.53
2018-08-09T05:19:04.370Z,22.52
2018-08-09T05:21:31.788Z,22.59
2018-08-09T05:23:58.947Z,22.68
2018-08-09T05:26:26.437Z,22.70
2018-08-09T05:28:53.591Z,22.81
2018-08-09T05:31:20.688Z,22.76
2018-08-09T05:33:48.335Z,22.88
2018-08-09T05:36:15.577Z,23.00
2018-08-09T05:38:42.782Z,23.03
2018-08-09T05:41:09.927Z,22.95
2018-08-09T05:43:37.052Z,23.08
2018-08-09T05:46:04.286Z,23.09
2018-08-09T05:48:31.852Z,23.11
2018-08-09T05:50:59.055Z,23.22
2018-08-09T05:53:26.499Z,23.30
2018-08-09T05:55:53.623Z,23.32
2018-08-09T05:58:20.718Z,23.35
2018-08-09T06:00:47.903Z,23.44
2018-08-09T06:03:15.701Z,23.52
2018-08-09T06:05:42.928Z,23.56
2018-08-09T06:08:09.998Z,23.68
2018-08-09T06:10:37.148Z,23.76
2018-08-09T06:13:04.351Z,23.84
2018-08-09T06:15:31.536Z,23.90
2018-08-09T06:17:58.971Z,23.98
2018-08-09T06:20:26.076Z,24.00
2018-08-09T06:22:53.175Z,24.10
2018-08-09T06:25:20.346Z,24.15
2018-08-09T06:27:47.545Z,24.22
2018-08-09T06:30:14.667Z,24.37
2018-08-09T06:32:41.796Z,24.46
2018-08-09T06:35:09.858Z,24.53
2018-08-09T06:37:37.444Z,24.59
2018-08-09T06:40:07.976Z,24.59
2018-08-09T06:42:35.080Z,24.59
2018-08-09T06:45:02.208Z,24.67
2018-08-09T06:47:29.332Z,24.72
2018-08-09T06:49:56.592Z,24.87
2018-08-09T06:52:23.784Z,24.97
2018-08-09T06:54:50.927Z,25.04
2018-08-09T06:59:51.932Z,25.24
2018-08-09T07:02:19.104Z,25.32
2018-08-09T07:04:46.261Z,25.36
2018-08-09T07:07:13.430Z,25.42
2018-08-09T07:09:40.531Z,25.56
2018-08-09T07:12:07.640Z,25.69
2018-08-09T07:14:35.220Z,25.89
2018-08-09T07:17:02.518Z,25.98
2018-08-09T07:19:29.601Z,26.00
2018-08-09T07:21:56.734Z,25.93
2018-08-09T07:24:23.844Z,26.05
2018-08-09T07:26:50.978Z,26.23
2018-08-09T07:29:18.175Z,26.24
2018-08-09T07:31:45.794Z,26.40
2018-08-09T07:34:12.907Z,26.39
2018-08-09T07:36:40.084Z,26.44
2018-08-09T07:39:08.292Z,26.62
2018-08-09T07:41:35.963Z,26.68
2018-08-09T07:44:03.510Z,26.98
2018-08-09T07:46:30.621Z,27.02
2018-08-09T07:48:57.739Z,27.22
2018-08-09T07:51:24.995Z,26.99
2018-08-09T07:53:52.180Z,27.14
2018-08-09T07:56:19.276Z,27.35
2018-08-09T07:58:46.420Z,27.60
2018-08-09T08:01:13.494Z,27.76
2018-08-09T08:03:40.665Z,27.74
2018-08-09T08:06:08.419Z,27.83
2018-08-09T08:08:35.553Z,27.80
2018-08-09T08:11:03.528Z,28.01
2018-08-09T08:13:31.407Z,28.23
2018-08-09T08:15:58.554Z,27.90
2018-08-09T08:18:25.714Z,28.21
2018-08-09T08:20:52.863Z,28.31
2018-08-09T08:23:19.961Z,28.49
2018-08-09T08:25:47.068Z,29.10
2018-08-09T08:28:14.275Z,29.37
2018-08-09T08:30:41.465Z,29.18
2018-08-09T08:33:08.565Z,29.00
2018-08-09T08:35:35.725Z,29.47
2018-08-09T08:38:02.869Z,29.59
2018-08-09T08:40:30.031Z,30.07
2018-08-09T08:42:57.236Z,30.34
2018-08-09T08:45:24.368Z,30.13
2018-08-09T08:47:51.463Z,29.44
2018-08-09T08:50:18.574Z,29.95
2018-08-09T08:52:45.721Z,29.78
2018-08-09T08:55:13.092Z,30.23
2018-08-09T08:57:40.210Z,30.32
2018-08-09T09:00:09.082Z,29.96
2018-08-09T09:02:36.481Z,29.90
2018-08-09T09:05:05.453Z,30.16
2018-08-09T09:07:32.578Z,29.64
2018-08-09T09:09:59.647Z,29.90
2018-08-09T09:12:26.825Z,30.29
2018-08-09T09:14:54.764Z,30.68
2018-08-09T09:17:21.929Z,30.43
2018-08-09T09:19:49.176Z,30.87
2018-08-09T09:22:16.286Z,31.13
2018-08-09T09:24:43.363Z,30.47
2018-08-09T09:27:10.498Z,31.00
2018-08-09T09:29:37.666Z,31.65
2018-08-09T09:32:04.933Z,31.36
2018-08-09T09:34:32.047Z,31.02
2018-08-09T09:36:59.155Z,31.47
2018-08-09T09:39:26.287Z,31.84
2018-08-09T09:41:53.466Z,32.15
2018-08-09T09:44:20.647Z,32.00
2018-08-09T09:46:47.743Z,31.71
2018-08-09T09:49:14.886Z,32.41
2018-08-09T09:51:41.985Z,32.49
2018-08-09T09:54:09.136Z,31.85
2018-08-09T09:56:36.750Z,31.87
2018-08-09T09:59:03.855Z,32.43
2018-08-09T10:01:32.989Z,32.46
2018-08-09T10:04:00.120Z,32.58
2018-08-09T10:06:27.300Z,33.23
2018-08-09T10:08:54.456Z,33.37
2018-08-09T10:11:21.586Z,33.07
2018-08-09T10:13:48.660Z,33.74
2018-08-09T10:16:15.776Z,33.13
2018-08-09T10:18:43.106Z,33.09
2018-08-09T10:21:10.264Z,32.69
2018-08-09T10:23:37.360Z,33.51
2018-08-09T10:26:04.491Z,33.79
2018-08-09T10:28:31.613Z,33.46
2018-08-09T10:30:58.816Z,33.96
2018-08-09T10:33:26.052Z,34.46
2018-08-09T10:35:53.152Z,33.78
2018-08-09T10:38:20.358Z,34.66
2018-08-09T10:40:47.524Z,35.08
2018-08-09T10:43:14.692Z,35.69
2018-08-09T10:45:41.852Z,34.48
2018-08-09T10:48:08.975Z,35.21
2018-08-09T10:50:36.083Z,34.11
2018-08-09T10:53:03.193Z,34.88
2018-08-09T10:55:30.398Z,34.71
2018-08-09T10:57:57.575Z,34.49
2018-08-09T11:00:24.696Z,34.67
2018-08-09T11:02:51.815Z,33.58
2018-08-09T11:05:18.968Z,34.12
2018-08-09T11:07:46.139Z,35.02
2018-08-09T11:10:13.343Z,34.89
2018-08-09T11:12:40.427Z,35.71
2018-08-09T11:15:09.005Z,36.04
2018-08-09T11:17:36.134Z,36.23
2018-08-09T11:20:04.301Z,35.12
2018-08-09T11:22:31.463Z,34.33
2018-08-09T11:24:58.631Z,34.64
2018-08-09T11:27:25.691Z,34.78
2018-08-09T11:29:52.785Z,35.84
2018-08-09T11:32:19.969Z,35.64
2018-08-09T11:34:47.118Z,35.60
2018-08-09T11:37:14.208Z,36.61
2018-08-09T11:39:41.389Z,36.21
2018-08-09T11:42:08.495Z,36.83
2018-08-09T11:44:35.631Z,36.04
2018-08-09T11:47:03.070Z,36.37
2018-08-09T11:49:31.375Z,36.18
2018-08-09T11:51:58.474Z,35.78
2018-08-09T11:54:25.652Z,36.21
2018-08-09T11:56:52.846Z,36.64
2018-08-09T11:59:20.024Z,35.16
2018-08-09T12:01:47.246Z,36.28
2018-08-09T12:04:14.348Z,36.73
2018-08-09T12:06:41.444Z,35.69
2018-08-09T12:09:09.768Z,35.59
2018-08-09T12:11:37.557Z,34.82
2018-08-09T12:14:05.341Z,35.41
2018-08-09T12:16:32.493Z,35.83
2018-08-09T12:18:59.615Z,34.83
2018-08-09T12:21:26.811Z,34.61
2018-08-09T12:23:54.408Z,34.74
2018-08-09T12:26:21.520Z,34.97
2018-08-09T12:28:48.648Z,34.37
2018-08-09T12:31:15.832Z,34.35
2018-08-09T12:33:43.027Z,34.37
2018-08-09T12:36:10.250Z,34.27
2018-08-09T12:38:37.366Z,34.15
2018-08-09T12:41:04.551Z,34.30
2018-08-09T12:43:31.667Z,34.23
2018-08-09T12:45:58.891Z,33.63
2018-08-09T12:48:26.037Z,34.06
2018-08-09T12:50:53.146Z,34.01
2018-08-09T12:53:20.392Z,33.72
2018-08-09T12:55:47.531Z,33.76
2018-08-09T12:58:14.730Z,33.50
2018-08-09T13:00:41.944Z,33.87
2018-08-09T13:03:09.103Z,34.05
2018-08-09T13:05:36.300Z,34.28
2018-08-09T13:08:03.575Z,34.52
2018-08-09T13:10:30.734Z,34.30
2018-08-09T13:12:57.910Z,34.39
2018-08-09T13:15:25.159Z,34.32
2018-08-09T13:17:52.256Z,34.23
2018-08-09T13:20:20.857Z,34.07
2018-08-09T13:22:49.390Z,33.96
2018-08-09T13:25:16.568Z,34.08
2018-08-09T13:27:43.741Z,34.12
2018-08-09T13:30:12.430Z,34.24
2018-08-09T13:32:39.856Z,34.20
2018-08-09T13:35:07.694Z,34.45
2018-08-09T13:37:34.928Z,34.36
2018-08-09T13:40:02.027Z,34.19
2018-08-09T13:42:29.168Z,34.05
2018-08-09T13:44:56.341Z,34.20
2018-08-09T13:47:23.546Z,34.47
2018-08-09T13:49:50.792Z,34.50
2018-08-09T13:52:17.958Z,34.42
2018-08-09T13:54:45.079Z,34.37
2018-08-09T13:57:13.061Z,34.20
2018-08-09T13:59:40.618Z,34.08
2018-08-09T14:02:07.860Z,34.37
2018-08-09T14:04:34.962Z,34.41
2018-08-09T14:07:02.107Z,34.51
2018-08-09T14:09:29.238Z,34.42
2018-08-09T14:11:56.481Z,34.54
2018-08-09T14:14:23.954Z,34.35
2018-08-09T14:16:51.068Z,34.48
2018-08-09T14:19:18.245Z,34.64
2018-08-09T14:21:45.369Z,34.19
2018-08-09T14:24:12.510Z,34.44
2018-08-09T14:26:39.769Z,34.24
2018-08-09T14:29:07.588Z,34.32
2018-08-09T14:31:35.216Z,34.52
2018-08-09T14:34:02.607Z,34.52
2018-08-09T14:36:29.828Z,34.53
2018-08-09T14:38:57.056Z,34.86
2018-08-09T14:41:24.168Z,34.62
2018-08-09T14:43:52.211Z,34.53
2018-08-09T14:46:19.340Z,34.63
2018-08-09T14:48:46.530Z,34.60
2018-08-09T14:51:13.793Z,34.48
2018-08-09T14:53:40.959Z,34.63
2018-08-09T14:56:08.102Z,34.66
2018-08-09T14:58:35.293Z,34.83
2018-08-09T15:01:02.508Z,34.36
2018-08-09T15:03:29.820Z,34.36
2018-08-09T15:05:57.320Z,34.38
2018-08-09T15:08:24.456Z,34.56
2018-08-09T15:10:51.578Z,34.45
2018-08-09T15:13:18.796Z,34.36
2018-08-09T15:15:46.272Z,34.24
2018-08-09T15:18:13.400Z,34.39
2018-08-09T15:20:40.573Z,34.49
2018-08-09T15:23:08.648Z,34.41
2018-08-09T15:25:35.910Z,34.30
2018-08-09T15:28:03.423Z,34.30
2018-08-09T15:30:30.708Z,34.31
2018-08-09T15:32:57.869Z,34.25
2018-08-09T15:35:25.107Z,34.27
2018-08-09T15:37:52.350Z,34.35
2018-08-09T15:40:19.532Z,34.32
2018-08-09T15:42:46.720Z,34.18
2018-08-09T15:45:14.883Z,34.21
2018-08-09T15:47:42.302Z,34.21
2018-08-09T15:50:11.437Z,34.13
2018-08-09T15:52:38.609Z,34.06
2018-08-09T15:55:05.856Z,34.10
2018-08-09T15:57:33.055Z,34.18
2018-08-09T16:00:00.236Z,34.07
2018-08-09T16:02:27.472Z,34.16
2018-08-09T16:04:54.693Z,34.11
2018-08-09T16:07:21.835Z,34.09
2018-08-09T16:09:48.922Z,34.18
2018-08-09T16:12:16.092Z,34.11
2018-08-09T16:14:43.268Z,33.89
2018-08-09T16:17:10.502Z,33.88
2018-08-09T16:19:37.717Z,33.82
2018-08-09T16:22:04.835Z,33.67
2018-08-09T16:24:31.990Z,33.60
2018-08-09T16:26:59.216Z,33.54
2018-08-09T16:29:26.725Z,33.52
2018-08-09T16:31:53.873Z,33.46
2018-08-09T16:34:21.061Z,33.50
2018-08-09T16:36:48.209Z,33.49
2018-08-09T16:39:15.391Z,33.50
2018-08-09T16:41:42.667Z,33.53
2018-08-09T16:44:10.555Z,33.52
2018-08-09T16:46:37.699Z,33.52
2018-08-09T16:49:05.039Z,33.56
2018-08-09T16:51:32.224Z,33.58
2018-08-09T16:53:59.432Z,33.53
2018-08-09T16:56:26.615Z,33.48
2018-08-09T16:58:53.721Z,33.43
2018-08-09T17:01:20.842Z,33.36
2018-08-09T17:03:48.068Z,33.26
2018-08-09T17:06:15.279Z,33.19
2018-08-09T17:08:42.360Z,33.08
2018-08-09T17:11:09.507Z,33.05
2018-08-09T17:13:36.647Z,32.97
2018-08-09T17:16:03.861Z,32.99
2018-08-09T17:18:31.341Z,32.94
2018-08-09T17:20:58.549Z,32.78
2018-08-09T17:23:25.676Z,32.68
2018-08-09T17:25:52.843Z,32.71
2018-08-09T17:28:20.033Z,32.59
2018-08-09T17:30:47.257Z,32.37
2018-08-09T17:33:14.424Z,32.38
2018-08-09T17:35:41.599Z,32.43
2018-08-09T17:38:08.696Z,32.49
2018-08-09T17:40:36.209Z,32.43
2018-08-09T17:43:04.019Z,32.25
2018-08-09T17:45:32.631Z,32.16
2018-08-09T17:48:00.136Z,32.16
2018-08-09T17:50:27.291Z,32.14
2018-08-09T17:52:55.865Z,32.02
2018-08-09T17:55:23.092Z,32.09
2018-08-09T17:57:50.213Z,32.01
2018-08-09T18:00:21.656Z,32.09
2018-08-09T18:02:49.056Z,32.13
2018-08-09T18:05:16.255Z,31.95
2018-08-09T18:07:43.607Z,31.85
2018-08-09T18:10:14.319Z,31.76
2018-08-09T18:12:41.553Z,31.67
2018-08-09T18:15:09.777Z,31.56
2018-08-09T18:17:37.054Z,31.45
2018-08-09T18:20:10.593Z,31.36
2018-08-09T18:22:37.764Z,31.23
2018-08-09T18:25:07.023Z,31.12
2018-08-09T18:27:34.204Z,31.05
2018-08-09T18:30:01.483Z,30.96
2018-08-09T19:02:57.204Z,30.11
2018-08-09T19:09:12.011Z,29.89
2018-08-09T19:11:39.225Z,29.87
2018-08-09T19:14:06.530Z,29.81
2018-08-09T19:16:33.676Z,29.75
2018-08-09T19:19:00.857Z,29.63
2018-08-09T19:21:28.065Z,29.55
2018-08-09T19:23:56.430Z,29.50
2018-08-09T19:26:23.785Z,29.50
2018-08-09T19:28:51.048Z,29.38
2018-08-09T19:31:18.302Z,29.24
2018-08-09T19:33:45.492Z,29.19
2018-08-09T19:36:12.711Z,29.08
2018-08-09T19:38:40.150Z,28.89
2018-08-09T19:41:07.477Z,28.80
2018-08-09T19:43:34.591Z,28.74
2018-08-09T19:46:01.879Z,28.71
2018-08-09T19:48:29.178Z,28.76
2018-08-09T19:50:56.484Z,29.06
2018-08-09T19:53:23.998Z,29.06
2018-08-09T19:55:51.289Z,28.94
2018-08-09T19:58:18.521Z,28.63
2018-08-09T20:00:45.732Z,28.07
2018-08-09T20:03:13.102Z,26.83
2018-08-09T20:05:40.214Z,25.86
2018-08-09T20:08:07.372Z,25.27
2018-08-09T20:10:34.536Z,25.08
2018-08-09T20:13:01.796Z,24.76
2018-08-09T20:15:30.276Z,24.67
2018-08-09T20:17:57.458Z,24.56
2018-08-09T20:20:25.646Z,24.51
2018-08-09T20:22:53.055Z,24.36
2018-08-09T20:25:20.247Z,24.36
2018-08-09T20:27:47.584Z,24.11
2018-08-09T20:30:15.720Z,23.74
2018-08-09T20:32:43.363Z,23.58
2018-08-09T20:35:13.540Z,23.34
2018-08-09T20:37:41.722Z,23.25
2018-08-09T20:40:09.842Z,23.20
2018-08-09T20:42:37.292Z,23.24
2018-08-09T20:45:05.881Z,23.12
2018-08-09T20:47:33.148Z,22.82
2018-08-09T20:50:00.314Z,22.64
2018-08-09T20:52:27.676Z,22.44
2018-08-09T20:54:54.869Z,22.36
2018-08-09T20:57:22.071Z,22.30
2018-08-09T20:59:49.262Z,22.29
2018-08-09T21:02:16.416Z,22.20
2018-08-09T21:04:43.748Z,22.07
2018-08-09T21:07:10.905Z,22.07
2018-08-09T21:09:38.123Z,22.11
2018-08-09T21:12:05.325Z,22.06
2018-08-09T21:14:32.693Z,22.06
2018-08-09T21:17:00.051Z,22.06
2018-08-09T21:19:27.250Z,22.12
2018-08-09T21:21:54.826Z,22.19
2018-08-09T21:24:21.966Z,22.24
2018-08-09T21:26:49.135Z,21.98
2018-08-09T21:29:16.515Z,21.95
2018-08-09T21:31:50.173Z,21.98
2018-08-09T21:34:17.372Z,21.94
2018-08-09T21:36:44.483Z,21.91
2018-08-09T21:39:13.158Z,21.87
2018-08-09T21:41:40.839Z,21.92
2018-08-09T21:44:07.980Z,22.02
2018-08-09T21:46:35.128Z,22.03
2018-08-09T21:49:02.303Z,22.00
2018-08-09T21:51:29.436Z,22.02
2018-08-09T21:53:56.733Z,21.94
2018-08-09T21:56:23.928Z,21.92
2018-08-09T21:58:51.054Z,21.92
2018-08-09T22:01:18.187Z,21.88
2018-08-09T22:03:45.343Z,21.86
2018-08-09T22:06:19.167Z,21.83
2018-08-09T22:08:52.084Z,21.79
2018-08-09T22:11:25.007Z,21.76
2018-08-09T22:13:57.796Z,21.74
2018-08-09T22:16:31.676Z,21.75
2018-08-09T22:19:04.551Z,21.66
2018-08-09T22:21:37.396Z,21.62
2018-08-09T22:24:04.615Z,21.61
2018-08-09T22:26:31.943Z,21.52
2018-08-09T22:28:59.132Z,21.47
2018-08-09T22:31:26.342Z,21.55
2018-08-09T22:33:53.756Z,21.45
2018-08-09T22:36:20.955Z,21.43
2018-08-09T22:38:48.254Z,21.39
2018-08-09T22:41:15.369Z,21.36
2018-08-09T22:43:42.518Z,21.37
2018-08-09T22:46:09.725Z,21.32
2018-08-09T22:48:36.881Z,21.40
2018-08-09T22:51:04.380Z,21.29
2018-08-09T22:53:31.568Z,21.29
2018-08-09T22:55:58.729Z,21.28
2018-08-09T22:58:25.877Z,21.24
2018-08-09T23:00:53.041Z,21.22
2018-08-09T23:03:20.324Z,21.27
2018-08-09T23:05:47.515Z,21.21
2018-08-09T23:08:15.474Z,21.22
2018-08-09T23:10:43.370Z,21.16
2018-08-09T23:13:11.371Z,21.13
2018-08-09T23:15:57.511Z,21.15
2018-08-09T23:18:24.662Z,21.06
2018-08-09T23:20:51.801Z,21.01
2018-08-09T23:23:19.043Z,21.04
2018-08-09T23:25:46.289Z,21.06
2018-08-09T23:28:13.509Z,21.00
2018-08-09T23:30:40.739Z,20.97
2018-08-09T23:33:07.887Z,20.96
2018-08-09T23:35:35.057Z,20.96
2018-08-09T23:38:02.379Z,20.91
2018-08-09T23:40:29.626Z,20.92
2018-08-09T23:42:56.809Z,20.93
2018-08-09T23:45:24.971Z,20.89
2018-08-09T23:47:52.105Z,20.83
2018-08-09T23:50:19.320Z,20.80
2018-08-09T23:52:46.580Z,20.81
2018-08-09T23:55:16.065Z,20.77
2018-08-09T23:57:43.371Z,20.74
